Love Boat — OT3861 — position and weather

sailwx.info

Track history (hours):
 
Tides and Currents Weather Stations Pressure Air Temp Water Temp Dewpoint Dewpoint Depression Visibility Wind Speed Wind Dir Waves Ship Positions

Love Boat

Last reported at 2016-Sep-29 16:29 UTC. Time now 2016-Sep-29 20:25 UTC.
Position N 51°34' E 006°38'.

Length 110 m.

Type: Ship. MMSI: 205386190.

Date/timePositionNaut miles runAvg speedWind from/ knotsBaromVisibWave heightAir tempDewpointWater temp
2016-Sep-29 16:29N 51°34' E 006°38'4 4.3
2016-Sep-29 15:33N 51°38' E 006°36'77 5.1
2016-Sep-29 00:33N 51°42' E 004°32'4 1.2
2016-Sep-28 21:33N 51°42' E 004°26'11 4.7
2016-Sep-28 19:14N 51°37' E 004°12'15 5.4
2016-Sep-28 16:23N 51°22' E 004°18'2 2.3
2016-Sep-28 15:33N 51°20' E 004°18'0 0.0
2016-Sep-28 12:33N 51°20' E 004°18'3 0.8
2016-Sep-28 08:33N 51°17' E 004°21'0 0.0
2016-Sep-28 03:33N 51°17' E 004°21'0 0.0
2016-Sep-28 02:33N 51°17' E 004°21'0 0.0
2016-Sep-28 01:33N 51°17' E 004°21'0 0.0
2016-Sep-27 23:33N 51°17' E 004°21'2 0.5
2016-Sep-27 19:33N 51°15' E 004°22'1 0.1
2016-Sep-27 14:33N 51°15' E 004°21'1 0.6
2016-Sep-27 13:33N 51°15' E 004°22'0 0.0
2016-Sep-27 10:33N 51°15' E 004°22'0 0.0
2016-Sep-27 00:33N 51°15' E 004°22'0 0.0
2016-Sep-26 20:33N 51°15' E 004°22'0 0.0
2016-Sep-26 19:33N 51°15' E 004°22'0 0.0
2016-Sep-26 15:33N 51°15' E 004°22'0 0.0
2016-Sep-26 13:33N 51°15' E 004°22'0 0.0
2016-Sep-26 11:34N 51°15' E 004°22'0 0.0
2016-Sep-26 08:33N 51°15' E 004°22'1 0.1
2016-Sep-26 02:33N 51°15' E 004°23'0 0.0
2016-Sep-26 01:33N 51°15' E 004°23'0 0.0
2016-Sep-26 00:33N 51°15' E 004°23'0 0.0
2016-Sep-25 21:33N 51°15' E 004°23'0 0.0
2016-Sep-25 17:33N 51°15' E 004°23'0 0.0
2016-Sep-25 16:33N 51°15' E 004°23'0 0.0
2016-Sep-25 15:33N 51°15' E 004°23'0 0.0
2016-Sep-25 14:33N 51°15' E 004°23'0 0.0
2016-Sep-25 12:33N 51°15' E 004°23'0 0.0
2016-Sep-25 11:33N 51°15' E 004°23'0 0.0
2016-Sep-25 10:33N 51°15' E 004°23'0 0.0
2016-Sep-25 09:33N 51°15' E 004°23'0 0.0
2016-Sep-25 07:33N 51°15' E 004°23'0 0.0
2016-Sep-25 04:33N 51°15' E 004°23'0 0.0
2016-Sep-25 00:33N 51°15' E 004°23'0 0.0
2016-Sep-24 22:33N 51°15' E 004°23'0 0.0
2016-Sep-24 21:33N 51°15' E 004°23'0 0.0
2016-Sep-24 19:33N 51°15' E 004°23'0 0.0
2016-Sep-24 18:33N 51°15' E 004°23'0 0.0
2016-Sep-24 17:33N 51°15' E 004°23'0 0.0
2016-Sep-24 16:33N 51°15' E 004°23'6 2.8
2016-Sep-24 14:32N 51°20' E 004°18'11 5.2
2016-Sep-24 12:31N 51°30' E 004°13'15 4.7
2016-Sep-24 09:18N 51°42' E 004°28'47 6.9
2016-Sep-24 02:29N 51°54' E 005°42'7 7.6
2016-Sep-24 01:32N 51°52' E 005°54'48 5.9
2016-Sep-23 17:33N 51°16' E 006°43'5 5.1
2016-Sep-23 16:33N 51°11' E 006°45'5 4.8
2016-Sep-23 15:29N 51°08' E 006°51'18 3.0
2016-Sep-23 09:33N 50°51' E 006°60'  
Track history (hours):
 
Tides and Currents Weather Stations Pressure Air Temp Water Temp Dewpoint Dewpoint Depression Visibility Wind Speed Wind Dir Waves Ship Positions

Love Boat

Last reported at 2016-Sep-29 16:29 UTC. Time now 2016-Sep-29 20:25 UTC.
Position N 51°34' E 006°38'.

Length 110 m.

Type: Ship. MMSI: 205386190.

Date/timePositionNaut miles runAvg speedWind from/ knotsBaromVisibWave heightAir tempDewpointWater temp
2016-Sep-29 16:29N 51°34' E 006°38'4 4.3
2016-Sep-29 15:33N 51°38' E 006°36'77 5.1
2016-Sep-29 00:33N 51°42' E 004°32'4 1.2
2016-Sep-28 21:33N 51°42' E 004°26'11 4.7
2016-Sep-28 19:14N 51°37' E 004°12'15 5.4
2016-Sep-28 16:23N 51°22' E 004°18'2 2.3
2016-Sep-28 15:33N 51°20' E 004°18'0 0.0
2016-Sep-28 12:33N 51°20' E 004°18'3 0.8
2016-Sep-28 08:33N 51°17' E 004°21'0 0.0
2016-Sep-28 03:33N 51°17' E 004°21'0 0.0
2016-Sep-28 02:33N 51°17' E 004°21'0 0.0
2016-Sep-28 01:33N 51°17' E 004°21'0 0.0
2016-Sep-27 23:33N 51°17' E 004°21'2 0.5
2016-Sep-27 19:33N 51°15' E 004°22'1 0.1
2016-Sep-27 14:33N 51°15' E 004°21'1 0.6
2016-Sep-27 13:33N 51°15' E 004°22'0 0.0
2016-Sep-27 10:33N 51°15' E 004°22'0 0.0
2016-Sep-27 00:33N 51°15' E 004°22'0 0.0
2016-Sep-26 20:33N 51°15' E 004°22'0 0.0
2016-Sep-26 19:33N 51°15' E 004°22'0 0.0
2016-Sep-26 15:33N 51°15' E 004°22'0 0.0
2016-Sep-26 13:33N 51°15' E 004°22'0 0.0
2016-Sep-26 11:34N 51°15' E 004°22'0 0.0
2016-Sep-26 08:33N 51°15' E 004°22'1 0.1
2016-Sep-26 02:33N 51°15' E 004°23'0 0.0
2016-Sep-26 01:33N 51°15' E 004°23'0 0.0
2016-Sep-26 00:33N 51°15' E 004°23'0 0.0
2016-Sep-25 21:33N 51°15' E 004°23'0 0.0
2016-Sep-25 17:33N 51°15' E 004°23'0 0.0
2016-Sep-25 16:33N 51°15' E 004°23'0 0.0
2016-Sep-25 15:33N 51°15' E 004°23'0 0.0
2016-Sep-25 14:33N 51°15' E 004°23'0 0.0
2016-Sep-25 12:33N 51°15' E 004°23'0 0.0
2016-Sep-25 11:33N 51°15' E 004°23'0 0.0
2016-Sep-25 10:33N 51°15' E 004°23'0 0.0
2016-Sep-25 09:33N 51°15' E 004°23'0 0.0
2016-Sep-25 07:33N 51°15' E 004°23'0 0.0
2016-Sep-25 04:33N 51°15' E 004°23'0 0.0
2016-Sep-25 00:33N 51°15' E 004°23'0 0.0
2016-Sep-24 22:33N 51°15' E 004°23'0 0.0
2016-Sep-24 21:33N 51°15' E 004°23'0 0.0
2016-Sep-24 19:33N 51°15' E 004°23'0 0.0
2016-Sep-24 18:33N 51°15' E 004°23'0 0.0
2016-Sep-24 17:33N 51°15' E 004°23'0 0.0
2016-Sep-24 16:33N 51°15' E 004°23'6 2.8
2016-Sep-24 14:32N 51°20' E 004°18'11 5.2
2016-Sep-24 12:31N 51°30' E 004°13'15 4.7
2016-Sep-24 09:18N 51°42' E 004°28'47 6.9
2016-Sep-24 02:29N 51°54' E 005°42'7 7.6
2016-Sep-24 01:32N 51°52' E 005°54'48 5.9
2016-Sep-23 17:33N 51°16' E 006°43'5 5.1
2016-Sep-23 16:33N 51°11' E 006°45'5 4.8
2016-Sep-23 15:29N 51°08' E 006°51'18 3.0
2016-Sep-23 09:33N 50°51' E 006°60'  

Dump ship's entire track history